sensor_id;sensor_type;location;lat;lon;timestamp;P1;durP1;ratioP1;P2;durP2;ratioP2
67640;SDS011;54434;50.096;20.082;2022-10-17T00:00:24;23.70;;;14.30;;
67640;SDS011;54434;50.096;20.082;2022-10-17T00:03:20;27.00;;;15.10;;
67640;SDS011;54434;50.096;20.082;2022-10-17T00:05:56;21.60;;;14.10;;
67640;SDS011;54434;50.096;20.082;2022-10-17T00:08:31;21.30;;;13.70;;
67640;SDS011;54434;50.096;20.082;2022-10-17T00:11:13;24.60;;;14.80;;
67640;SDS011;54434;50.096;20.082;2022-10-17T00:13:52;24.90;;;14.80;;
67640;SDS011;54434;50.096;20.082;2022-10-17T00:16:32;25.90;;;15.50;;
67640;SDS011;54434;50.096;20.082;2022-10-17T00:19:09;24.80;;;14.10;;
67640;SDS011;54434;50.096;20.082;2022-10-17T00:21:45;25.30;;;13.80;;
67640;SDS011;54434;50.096;20.082;2022-10-17T00:24:23;24.70;;;14.10;;
67640;SDS011;54434;50.096;20.082;2022-10-17T00:26:59;25.30;;;14.00;;
67640;SDS011;54434;50.096;20.082;2022-10-17T00:29:35;21.60;;;13.30;;
67640;SDS011;54434;50.096;20.082;2022-10-17T00:32:11;23.70;;;14.10;;
67640;SDS011;54434;50.096;20.082;2022-10-17T00:34:47;24.20;;;14.30;;
67640;SDS011;54434;50.096;20.082;2022-10-17T00:37:23;25.10;;;15.30;;
67640;SDS011;54434;50.096;20.082;2022-10-17T00:39:59;28.20;;;14.00;;
67640;SDS011;54434;50.096;20.082;2022-10-17T00:42:35;23.60;;;14.20;;
67640;SDS011;54434;50.096;20.082;2022-10-17T00:45:21;25.70;;;14.80;;
67640;SDS011;54434;50.096;20.082;2022-10-17T00:48:03;27.60;;;14.30;;
67640;SDS011;54434;50.096;20.082;2022-10-17T00:50:46;23.70;;;14.50;;
67640;SDS011;54434;50.096;20.082;2022-10-17T00:53:23;25.00;;;14.30;;
67640;SDS011;54434;50.096;20.082;2022-10-17T00:55:59;26.30;;;14.60;;
67640;SDS011;54434;50.096;20.082;2022-10-17T00:58:36;24.90;;;14.00;;
67640;SDS011;54434;50.096;20.082;2022-10-17T01:01:12;26.50;;;14.70;;
67640;SDS011;54434;50.096;20.082;2022-10-17T01:03:48;24.00;;;14.70;;
67640;SDS011;54434;50.096;20.082;2022-10-17T01:06:24;26.10;;;15.50;;
67640;SDS011;54434;50.096;20.082;2022-10-17T01:09:00;26.60;;;15.70;;
67640;SDS011;54434;50.096;20.082;2022-10-17T01:11:43;26.40;;;15.70;;
67640;SDS011;54434;50.096;20.082;2022-10-17T01:14:28;28.10;;;15.30;;
67640;SDS011;54434;50.096;20.082;2022-10-17T01:17:23;29.10;;;17.00;;
67640;SDS011;54434;50.096;20.082;2022-10-17T01:20:50;29.40;;;15.30;;
67640;SDS011;54434;50.096;20.082;2022-10-17T01:28:02;27.90;;;14.70;;
67640;SDS011;54434;50.096;20.082;2022-10-17T01:31:09;26.70;;;14.70;;
67640;SDS011;54434;50.096;20.082;2022-10-17T01:33:57;28.00;;;15.50;;
67640;SDS011;54434;50.096;20.082;2022-10-17T01:36:48;28.00;;;15.50;;
67640;SDS011;54434;50.096;20.082;2022-10-17T01:39:35;27.20;;;14.50;;
67640;SDS011;54434;50.096;20.082;2022-10-17T01:42:22;27.70;;;15.40;;
67640;SDS011;54434;50.096;20.082;2022-10-17T01:45:07;24.90;;;14.90;;
67640;SDS011;54434;50.096;20.082;2022-10-17T01:47:52;26.00;;;15.00;;
67640;SDS011;54434;50.096;20.082;2022-10-17T01:50:33;26.30;;;15.40;;
67640;SDS011;54434;50.096;20.082;2022-10-17T01:53:15;26.90;;;15.40;;
67640;SDS011;54434;50.096;20.082;2022-10-17T01:55:58;26.70;;;14.90;;
67640;SDS011;54434;50.096;20.082;2022-10-17T01:58:41;26.40;;;14.90;;
67640;SDS011;54434;50.096;20.082;2022-10-17T02:01:24;27.10;;;14.90;;
67640;SDS011;54434;50.096;20.082;2022-10-17T02:04:06;24.60;;;14.70;;
67640;SDS011;54434;50.096;20.082;2022-10-17T02:06:44;27.70;;;14.80;;
67640;SDS011;54434;50.096;20.082;2022-10-17T02:09:22;25.00;;;15.20;;
67640;SDS011;54434;50.096;20.082;2022-10-17T02:12:14;24.70;;;14.80;;
67640;SDS011;54434;50.096;20.082;2022-10-17T02:18:00;24.70;;;14.10;;
67640;SDS011;54434;50.096;20.082;2022-10-17T02:20:54;23.00;;;14.70;;
67640;SDS011;54434;50.096;20.082;2022-10-17T02:23:40;26.20;;;14.60;;
67640;SDS011;54434;50.096;20.082;2022-10-17T02:26:29;25.40;;;14.80;;
67640;SDS011;54434;50.096;20.082;2022-10-17T02:29:14;25.00;;;15.10;;
67640;SDS011;54434;50.096;20.082;2022-10-17T02:31:57;23.40;;;15.00;;
67640;SDS011;54434;50.096;20.082;2022-10-17T02:34:40;25.80;;;14.40;;
67640;SDS011;54434;50.096;20.082;2022-10-17T02:37:24;24.00;;;13.80;;
67640;SDS011;54434;50.096;20.082;2022-10-17T02:40:05;25.60;;;14.60;;
67640;SDS011;54434;50.096;20.082;2022-10-17T02:42:44;25.70;;;14.90;;
67640;SDS011;54434;50.096;20.082;2022-10-17T02:45:21;27.00;;;14.80;;
67640;SDS011;54434;50.096;20.082;2022-10-17T02:48:04;25.10;;;14.90;;
67640;SDS011;54434;50.096;20.082;2022-10-17T02:50:51;28.20;;;14.80;;
67640;SDS011;54434;50.096;20.082;2022-10-17T02:53:41;25.50;;;14.50;;
67640;SDS011;54434;50.096;20.082;2022-10-17T02:56:22;27.40;;;14.60;;
67640;SDS011;54434;50.096;20.082;2022-10-17T02:59:03;32.10;;;14.60;;
67640;SDS011;54434;50.096;20.082;2022-10-17T03:01:42;25.30;;;15.30;;
67640;SDS011;54434;50.096;20.082;2022-10-17T03:04:18;24.50;;;14.60;;
67640;SDS011;54434;50.096;20.082;2022-10-17T03:06:54;23.50;;;14.00;;
67640;SDS011;54434;50.096;20.082;2022-10-17T03:09:30;23.80;;;14.40;;
67640;SDS011;54434;50.096;20.082;2022-10-17T03:12:07;23.60;;;13.20;;
67640;SDS011;54434;50.096;20.082;2022-10-17T03:14:43;24.30;;;14.40;;
67640;SDS011;54434;50.096;20.082;2022-10-17T03:17:19;25.70;;;13.80;;
67640;SDS011;54434;50.096;20.082;2022-10-17T03:19:55;25.70;;;15.00;;
67640;SDS011;54434;50.096;20.082;2022-10-17T03:22:31;24.20;;;15.10;;
67640;SDS011;54434;50.096;20.082;2022-10-17T03:25:08;23.80;;;14.30;;
67640;SDS011;54434;50.096;20.082;2022-10-17T03:27:44;24.40;;;14.90;;
67640;SDS011;54434;50.096;20.082;2022-10-17T03:30:20;24.40;;;14.40;;
67640;SDS011;54434;50.096;20.082;2022-10-17T03:32:57;23.80;;;14.70;;
67640;SDS011;54434;50.096;20.082;2022-10-17T03:35:34;30.10;;;14.90;;
67640;SDS011;54434;50.096;20.082;2022-10-17T03:38:13;27.40;;;15.40;;
67640;SDS011;54434;50.096;20.082;2022-10-17T03:40:56;24.30;;;14.50;;
67640;SDS011;54434;50.096;20.082;2022-10-17T03:43:32;27.20;;;14.80;;
67640;SDS011;54434;50.096;20.082;2022-10-17T03:46:08;23.90;;;14.00;;
67640;SDS011;54434;50.096;20.082;2022-10-17T03:48:44;24.50;;;14.90;;
67640;SDS011;54434;50.096;20.082;2022-10-17T03:51:21;27.50;;;14.50;;
67640;SDS011;54434;50.096;20.082;2022-10-17T03:54:01;23.50;;;14.20;;
67640;SDS011;54434;50.096;20.082;2022-10-17T03:56:37;23.60;;;14.70;;
67640;SDS011;54434;50.096;20.082;2022-10-17T03:59:17;26.90;;;15.40;;
67640;SDS011;54434;50.096;20.082;2022-10-17T04:02:03;24.70;;;15.20;;
67640;SDS011;54434;50.096;20.082;2022-10-17T04:04:40;39.60;;;22.60;;
67640;SDS011;54434;50.096;20.082;2022-10-17T04:07:16;73.40;;;35.00;;
67640;SDS011;54434;50.096;20.082;2022-10-17T04:09:53;205.50;;;103.50;;
67640;SDS011;54434;50.096;20.082;2022-10-17T04:12:28;49.50;;;27.90;;
67640;SDS011;54434;50.096;20.082;2022-10-17T04:15:07;26.50;;;15.90;;
67640;SDS011;54434;50.096;20.082;2022-10-17T04:17:44;32.20;;;16.30;;
67640;SDS011;54434;50.096;20.082;2022-10-17T04:20:21;23.70;;;14.70;;
67640;SDS011;54434;50.096;20.082;2022-10-17T04:22:58;25.00;;;15.10;;
67640;SDS011;54434;50.096;20.082;2022-10-17T04:25:34;27.20;;;14.90;;
67640;SDS011;54434;50.096;20.082;2022-10-17T04:28:10;25.90;;;15.70;;
67640;SDS011;54434;50.096;20.082;2022-10-17T04:30:46;143.70;;;77.20;;
67640;SDS011;54434;50.096;20.082;2022-10-17T04:33:29;241.50;;;108.00;;
67640;SDS011;54434;50.096;20.082;2022-10-17T04:36:09;64.70;;;32.70;;
67640;SDS011;54434;50.096;20.082;2022-10-17T04:38:47;47.30;;;25.70;;
67640;SDS011;54434;50.096;20.082;2022-10-17T04:41:24;34.70;;;19.50;;
67640;SDS011;54434;50.096;20.082;2022-10-17T04:44:00;30.80;;;18.50;;
67640;SDS011;54434;50.096;20.082;2022-10-17T04:46:37;27.80;;;16.20;;
67640;SDS011;54434;50.096;20.082;2022-10-17T04:49:13;24.20;;;14.90;;
67640;SDS011;54434;50.096;20.082;2022-10-17T04:51:51;24.50;;;15.00;;
67640;SDS011;54434;50.096;20.082;2022-10-17T04:54:42;27.10;;;15.10;;
67640;SDS011;54434;50.096;20.082;2022-10-17T04:57:19;25.70;;;15.40;;
67640;SDS011;54434;50.096;20.082;2022-10-17T05:00:11;23.90;;;14.40;;
67640;SDS011;54434;50.096;20.082;2022-10-17T05:03:03;28.20;;;14.40;;
67640;SDS011;54434;50.096;20.082;2022-10-17T05:05:41;26.00;;;14.70;;
67640;SDS011;54434;50.096;20.082;2022-10-17T05:08:17;28.80;;;15.10;;
67640;SDS011;54434;50.096;20.082;2022-10-17T05:10:53;27.30;;;15.00;;
67640;SDS011;54434;50.096;20.082;2022-10-17T05:13:29;26.80;;;14.20;;
67640;SDS011;54434;50.096;20.082;2022-10-17T05:16:06;26.10;;;14.60;;
67640;SDS011;54434;50.096;20.082;2022-10-17T05:18:42;25.10;;;15.00;;
67640;SDS011;54434;50.096;20.082;2022-10-17T05:21:26;29.90;;;15.30;;
67640;SDS011;54434;50.096;20.082;2022-10-17T05:24:10;29.70;;;15.70;;
67640;SDS011;54434;50.096;20.082;2022-10-17T05:26:50;33.70;;;14.90;;
67640;SDS011;54434;50.096;20.082;2022-10-17T05:29:26;22.90;;;15.10;;
67640;SDS011;54434;50.096;20.082;2022-10-17T05:32:08;27.10;;;15.80;;
67640;SDS011;54434;50.096;20.082;2022-10-17T05:34:45;23.60;;;14.50;;
67640;SDS011;54434;50.096;20.082;2022-10-17T05:37:27;28.20;;;14.80;;
67640;SDS011;54434;50.096;20.082;2022-10-17T05:40:05;26.80;;;15.50;;
67640;SDS011;54434;50.096;20.082;2022-10-17T05:42:46;26.20;;;14.50;;
67640;SDS011;54434;50.096;20.082;2022-10-17T05:45:22;27.80;;;14.40;;
67640;SDS011;54434;50.096;20.082;2022-10-17T05:47:58;28.10;;;15.00;;
67640;SDS011;54434;50.096;20.082;2022-10-17T05:50:34;23.90;;;14.10;;
67640;SDS011;54434;50.096;20.082;2022-10-17T05:53:16;22.10;;;14.50;;
67640;SDS011;54434;50.096;20.082;2022-10-17T05:56:00;23.00;;;14.10;;
67640;SDS011;54434;50.096;20.082;2022-10-17T05:58:40;25.40;;;14.60;;
67640;SDS011;54434;50.096;20.082;2022-10-17T06:01:33;28.90;;;16.00;;
67640;SDS011;54434;50.096;20.082;2022-10-17T06:04:08;27.90;;;15.90;;
67640;SDS011;54434;50.096;20.082;2022-10-17T06:06:45;27.80;;;15.70;;
67640;SDS011;54434;50.096;20.082;2022-10-17T06:09:22;26.60;;;14.10;;
67640;SDS011;54434;50.096;20.082;2022-10-17T06:11:59;27.10;;;16.40;;
67640;SDS011;54434;50.096;20.082;2022-10-17T06:14:35;27.80;;;15.80;;
67640;SDS011;54434;50.096;20.082;2022-10-17T06:17:12;27.00;;;16.30;;
67640;SDS011;54434;50.096;20.082;2022-10-17T06:19:49;31.30;;;15.90;;
67640;SDS011;54434;50.096;20.082;2022-10-17T06:22:25;27.70;;;15.60;;
67640;SDS011;54434;50.096;20.082;2022-10-17T06:25:01;33.60;;;17.80;;
67640;SDS011;54434;50.096;20.082;2022-10-17T06:27:38;27.90;;;17.80;;
67640;SDS011;54434;50.096;20.082;2022-10-17T06:30:16;35.40;;;20.50;;
67640;SDS011;54434;50.096;20.082;2022-10-17T06:32:52;35.60;;;20.90;;
67640;SDS011;54434;50.096;20.082;2022-10-17T06:35:28;40.90;;;21.70;;
67640;SDS011;54434;50.096;20.082;2022-10-17T06:38:08;39.50;;;23.10;;
67640;SDS011;54434;50.096;20.082;2022-10-17T06:40:45;44.50;;;27.30;;
67640;SDS011;54434;50.096;20.082;2022-10-17T06:43:21;43.50;;;28.60;;
67640;SDS011;54434;50.096;20.082;2022-10-17T06:46:43;49.60;;;30.90;;
67640;SDS011;54434;50.096;20.082;2022-10-17T06:49:21;59.20;;;35.30;;
67640;SDS011;54434;50.096;20.082;2022-10-17T06:52:17;64.90;;;36.50;;
67640;SDS011;54434;50.096;20.082;2022-10-17T06:55:18;54.80;;;36.30;;
67640;SDS011;54434;50.096;20.082;2022-10-17T06:58:07;46.40;;;31.60;;
67640;SDS011;54434;50.096;20.082;2022-10-17T07:01:26;47.00;;;27.40;;
67640;SDS011;54434;50.096;20.082;2022-10-17T07:04:05;49.30;;;29.10;;
67640;SDS011;54434;50.096;20.082;2022-10-17T07:06:41;54.20;;;30.70;;
67640;SDS011;54434;50.096;20.082;2022-10-17T07:09:23;45.50;;;27.90;;
67640;SDS011;54434;50.096;20.082;2022-10-17T07:12:03;50.60;;;28.10;;
67640;SDS011;54434;50.096;20.082;2022-10-17T07:14:40;49.20;;;29.20;;
67640;SDS011;54434;50.096;20.082;2022-10-17T07:17:19;46.90;;;28.10;;
67640;SDS011;54434;50.096;20.082;2022-10-17T07:19:55;46.80;;;27.30;;
67640;SDS011;54434;50.096;20.082;2022-10-17T07:22:31;48.60;;;27.40;;
67640;SDS011;54434;50.096;20.082;2022-10-17T07:25:09;46.60;;;26.80;;
67640;SDS011;54434;50.096;20.082;2022-10-17T07:27:53;43.40;;;25.50;;
67640;SDS011;54434;50.096;20.082;2022-10-17T07:30:29;41.90;;;23.60;;
67640;SDS011;54434;50.096;20.082;2022-10-17T07:33:10;40.60;;;22.90;;
67640;SDS011;54434;50.096;20.082;2022-10-17T07:35:46;43.70;;;22.20;;
67640;SDS011;54434;50.096;20.082;2022-10-17T07:38:24;40.70;;;21.70;;
67640;SDS011;54434;50.096;20.082;2022-10-17T07:41:06;39.80;;;20.50;;
67640;SDS011;54434;50.096;20.082;2022-10-17T07:43:42;39.30;;;22.40;;
67640;SDS011;54434;50.096;20.082;2022-10-17T07:46:20;38.20;;;20.90;;
67640;SDS011;54434;50.096;20.082;2022-10-17T07:48:57;46.00;;;19.70;;
67640;SDS011;54434;50.096;20.082;2022-10-17T07:51:33;39.50;;;17.90;;
67640;SDS011;54434;50.096;20.082;2022-10-17T07:54:09;32.70;;;16.90;;
67640;SDS011;54434;50.096;20.082;2022-10-17T07:56:45;41.30;;;17.00;;
67640;SDS011;54434;50.096;20.082;2022-10-17T07:59:22;40.10;;;17.50;;
67640;SDS011;54434;50.096;20.082;2022-10-17T08:01:58;36.30;;;17.10;;
67640;SDS011;54434;50.096;20.082;2022-10-17T08:04:36;36.30;;;16.30;;
67640;SDS011;54434;50.096;20.082;2022-10-17T08:07:12;42.20;;;15.60;;
67640;SDS011;54434;50.096;20.082;2022-10-17T08:09:58;34.60;;;15.80;;
67640;SDS011;54434;50.096;20.082;2022-10-17T08:12:35;41.40;;;14.30;;
67640;SDS011;54434;50.096;20.082;2022-10-17T08:15:12;40.30;;;14.90;;
67640;SDS011;54434;50.096;20.082;2022-10-17T08:17:48;39.40;;;13.90;;
67640;SDS011;54434;50.096;20.082;2022-10-17T08:20:24;27.30;;;11.00;;
67640;SDS011;54434;50.096;20.082;2022-10-17T08:23:00;23.10;;;10.60;;
67640;SDS011;54434;50.096;20.082;2022-10-17T08:25:38;25.40;;;9.90;;
67640;SDS011;54434;50.096;20.082;2022-10-17T08:28:14;23.00;;;11.10;;
67640;SDS011;54434;50.096;20.082;2022-10-17T08:30:50;26.50;;;9.90;;
67640;SDS011;54434;50.096;20.082;2022-10-17T08:33:26;17.70;;;9.10;;
67640;SDS011;54434;50.096;20.082;2022-10-17T08:36:03;19.60;;;8.70;;
67640;SDS011;54434;50.096;20.082;2022-10-17T08:38:41;17.20;;;8.90;;
67640;SDS011;54434;50.096;20.082;2022-10-17T08:41:39;17.40;;;8.40;;
67640;SDS011;54434;50.096;20.082;2022-10-17T08:44:38;20.20;;;8.20;;
67640;SDS011;54434;50.096;20.082;2022-10-17T08:47:34;27.10;;;9.50;;
67640;SDS011;54434;50.096;20.082;2022-10-17T08:50:17;16.40;;;8.90;;
67640;SDS011;54434;50.096;20.082;2022-10-17T08:53:03;20.50;;;8.80;;
67640;SDS011;54434;50.096;20.082;2022-10-17T08:55:47;18.20;;;8.40;;
67640;SDS011;54434;50.096;20.082;2022-10-17T08:58:28;16.60;;;9.40;;
67640;SDS011;54434;50.096;20.082;2022-10-17T09:01:13;23.60;;;8.90;;
67640;SDS011;54434;50.096;20.082;2022-10-17T09:04:25;18.00;;;8.50;;
67640;SDS011;54434;50.096;20.082;2022-10-17T09:07:28;23.90;;;9.70;;
67640;SDS011;54434;50.096;20.082;2022-10-17T09:10:17;27.00;;;9.50;;
67640;SDS011;54434;50.096;20.082;2022-10-17T09:13:13;18.90;;;9.30;;
67640;SDS011;54434;50.096;20.082;2022-10-17T09:19:16;19.30;;;8.80;;
67640;SDS011;54434;50.096;20.082;2022-10-17T09:22:00;16.00;;;8.30;;
67640;SDS011;54434;50.096;20.082;2022-10-17T09:24:44;17.10;;;7.70;;
67640;SDS011;54434;50.096;20.082;2022-10-17T09:27:26;17.70;;;8.00;;
67640;SDS011;54434;50.096;20.082;2022-10-17T09:30:35;14.20;;;7.40;;
67640;SDS011;54434;50.096;20.082;2022-10-17T09:33:23;10.70;;;6.30;;
67640;SDS011;54434;50.096;20.082;2022-10-17T09:36:13;16.20;;;7.60;;
67640;SDS011;54434;50.096;20.082;2022-10-17T09:38:54;13.70;;;6.90;;
67640;SDS011;54434;50.096;20.082;2022-10-17T09:41:36;12.30;;;6.60;;
67640;SDS011;54434;50.096;20.082;2022-10-17T09:44:38;13.20;;;7.50;;
67640;SDS011;54434;50.096;20.082;2022-10-17T09:47:30;12.70;;;7.60;;
67640;SDS011;54434;50.096;20.082;2022-10-17T09:50:16;12.80;;;7.20;;
67640;SDS011;54434;50.096;20.082;2022-10-17T09:53:01;12.90;;;7.30;;
67640;SDS011;54434;50.096;20.082;2022-10-17T09:55:46;12.60;;;7.30;;
67640;SDS011;54434;50.096;20.082;2022-10-17T09:58:23;14.60;;;7.40;;
67640;SDS011;54434;50.096;20.082;2022-10-17T10:01:21;13.20;;;7.30;;
67640;SDS011;54434;50.096;20.082;2022-10-17T10:04:14;16.20;;;7.10;;
67640;SDS011;54434;50.096;20.082;2022-10-17T10:07:05;12.00;;;7.60;;
67640;SDS011;54434;50.096;20.082;2022-10-17T10:09:48;14.10;;;7.10;;
67640;SDS011;54434;50.096;20.082;2022-10-17T10:12:26;12.40;;;6.90;;
67640;SDS011;54434;50.096;20.082;2022-10-17T10:15:33;13.20;;;8.10;;
67640;SDS011;54434;50.096;20.082;2022-10-17T10:18:34;15.50;;;7.50;;
67640;SDS011;54434;50.096;20.082;2022-10-17T10:21:14;16.70;;;8.70;;
67640;SDS011;54434;50.096;20.082;2022-10-17T10:26:49;15.90;;;7.10;;
67640;SDS011;54434;50.096;20.082;2022-10-17T10:29:32;11.40;;;7.00;;
67640;SDS011;54434;50.096;20.082;2022-10-17T10:32:15;18.00;;;8.40;;
67640;SDS011;54434;50.096;20.082;2022-10-17T10:34:57;16.20;;;8.50;;
67640;SDS011;54434;50.096;20.082;2022-10-17T10:37:40;18.10;;;8.00;;
67640;SDS011;54434;50.096;20.082;2022-10-17T10:40:22;16.90;;;7.50;;
67640;SDS011;54434;50.096;20.082;2022-10-17T10:43:00;10.80;;;6.80;;
67640;SDS011;54434;50.096;20.082;2022-10-17T10:45:44;13.40;;;7.50;;
67640;SDS011;54434;50.096;20.082;2022-10-17T10:48:24;20.40;;;8.60;;
67640;SDS011;54434;50.096;20.082;2022-10-17T10:51:07;16.50;;;7.00;;
67640;SDS011;54434;50.096;20.082;2022-10-17T10:53:51;13.90;;;6.80;;
67640;SDS011;54434;50.096;20.082;2022-10-17T10:56:36;18.70;;;7.10;;
67640;SDS011;54434;50.096;20.082;2022-10-17T10:59:19;14.30;;;6.70;;
67640;SDS011;54434;50.096;20.082;2022-10-17T11:02:09;12.90;;;6.00;;
67640;SDS011;54434;50.096;20.082;2022-10-17T11:04:53;9.00;;;5.80;;
67640;SDS011;54434;50.096;20.082;2022-10-17T11:07:36;12.40;;;5.50;;
67640;SDS011;54434;50.096;20.082;2022-10-17T11:10:24;13.50;;;8.00;;
67640;SDS011;54434;50.096;20.082;2022-10-17T11:13:08;10.50;;;5.40;;
67640;SDS011;54434;50.096;20.082;2022-10-17T11:15:54;8.50;;;5.50;;
67640;SDS011;54434;50.096;20.082;2022-10-17T11:18:43;10.80;;;6.30;;
67640;SDS011;54434;50.096;20.082;2022-10-17T11:21:30;10.80;;;6.00;;
67640;SDS011;54434;50.096;20.082;2022-10-17T11:24:22;13.80;;;7.00;;
67640;SDS011;54434;50.096;20.082;2022-10-17T11:27:05;13.00;;;6.10;;
67640;SDS011;54434;50.096;20.082;2022-10-17T11:29:42;14.80;;;6.60;;
67640;SDS011;54434;50.096;20.082;2022-10-17T11:32:25;16.10;;;8.00;;
67640;SDS011;54434;50.096;20.082;2022-10-17T11:35:15;12.00;;;7.00;;
67640;SDS011;54434;50.096;20.082;2022-10-17T11:37:59;16.30;;;7.10;;
67640;SDS011;54434;50.096;20.082;2022-10-17T11:40:50;13.50;;;6.60;;
67640;SDS011;54434;50.096;20.082;2022-10-17T11:43:33;11.30;;;6.10;;
67640;SDS011;54434;50.096;20.082;2022-10-17T11:46:17;9.20;;;5.50;;
67640;SDS011;54434;50.096;20.082;2022-10-17T11:49:05;11.10;;;6.20;;
67640;SDS011;54434;50.096;20.082;2022-10-17T11:51:59;12.40;;;6.80;;
67640;SDS011;54434;50.096;20.082;2022-10-17T11:54:44;9.10;;;5.40;;
67640;SDS011;54434;50.096;20.082;2022-10-17T11:57:45;7.90;;;4.70;;
67640;SDS011;54434;50.096;20.082;2022-10-17T12:00:40;11.20;;;4.70;;
67640;SDS011;54434;50.096;20.082;2022-10-17T12:03:35;12.90;;;5.60;;
67640;SDS011;54434;50.096;20.082;2022-10-17T12:06:36;13.60;;;6.10;;
67640;SDS011;54434;50.096;20.082;2022-10-17T12:09:28;8.60;;;4.50;;
67640;SDS011;54434;50.096;20.082;2022-10-17T12:12:24;10.20;;;5.40;;
67640;SDS011;54434;50.096;20.082;2022-10-17T12:15:29;12.80;;;5.60;;
67640;SDS011;54434;50.096;20.082;2022-10-17T12:18:15;9.20;;;5.50;;
67640;SDS011;54434;50.096;20.082;2022-10-17T12:20:58;10.50;;;5.80;;
67640;SDS011;54434;50.096;20.082;2022-10-17T12:23:34;9.30;;;5.70;;
67640;SDS011;54434;50.096;20.082;2022-10-17T12:26:25;9.60;;;5.20;;
67640;SDS011;54434;50.096;20.082;2022-10-17T12:29:02;11.20;;;5.60;;
67640;SDS011;54434;50.096;20.082;2022-10-17T12:32:10;11.80;;;6.60;;
67640;SDS011;54434;50.096;20.082;2022-10-17T12:34:55;8.60;;;4.70;;
67640;SDS011;54434;50.096;20.082;2022-10-17T12:38:21;10.70;;;5.50;;
67640;SDS011;54434;50.096;20.082;2022-10-17T12:41:03;13.60;;;7.00;;
67640;SDS011;54434;50.096;20.082;2022-10-17T12:43:56;17.90;;;8.10;;
67640;SDS011;54434;50.096;20.082;2022-10-17T12:46:48;16.80;;;7.30;;
67640;SDS011;54434;50.096;20.082;2022-10-17T12:49:42;13.30;;;6.90;;
67640;SDS011;54434;50.096;20.082;2022-10-17T12:55:34;12.90;;;7.50;;
67640;SDS011;54434;50.096;20.082;2022-10-17T12:58:15;16.10;;;7.50;;
67640;SDS011;54434;50.096;20.082;2022-10-17T13:00:54;11.80;;;6.90;;
67640;SDS011;54434;50.096;20.082;2022-10-17T13:03:52;11.30;;;6.60;;
67640;SDS011;54434;50.096;20.082;2022-10-17T13:06:31;12.00;;;6.40;;
67640;SDS011;54434;50.096;20.082;2022-10-17T13:09:31;13.80;;;6.30;;
67640;SDS011;54434;50.096;20.082;2022-10-17T13:12:17;13.50;;;6.10;;
67640;SDS011;54434;50.096;20.082;2022-10-17T13:14:57;12.60;;;7.00;;
67640;SDS011;54434;50.096;20.082;2022-10-17T13:17:36;11.40;;;6.10;;
67640;SDS011;54434;50.096;20.082;2022-10-17T13:20:24;7.50;;;4.50;;
67640;SDS011;54434;50.096;20.082;2022-10-17T13:23:03;13.90;;;6.50;;
67640;SDS011;54434;50.096;20.082;2022-10-17T13:25:39;12.80;;;6.70;;
67640;SDS011;54434;50.096;20.082;2022-10-17T13:28:15;12.60;;;5.80;;
67640;SDS011;54434;50.096;20.082;2022-10-17T13:30:51;10.00;;;5.40;;
67640;SDS011;54434;50.096;20.082;2022-10-17T13:33:36;10.40;;;5.70;;
67640;SDS011;54434;50.096;20.082;2022-10-17T13:36:16;13.50;;;6.30;;
67640;SDS011;54434;50.096;20.082;2022-10-17T13:38:53;11.80;;;6.40;;
67640;SDS011;54434;50.096;20.082;2022-10-17T13:41:32;8.50;;;4.60;;
67640;SDS011;54434;50.096;20.082;2022-10-17T13:44:18;11.50;;;5.70;;
67640;SDS011;54434;50.096;20.082;2022-10-17T13:46:56;7.30;;;4.40;;
67640;SDS011;54434;50.096;20.082;2022-10-17T13:49:36;9.00;;;5.10;;
67640;SDS011;54434;50.096;20.082;2022-10-17T13:52:21;11.90;;;4.90;;
67640;SDS011;54434;50.096;20.082;2022-10-17T13:55:14;10.30;;;5.60;;
67640;SDS011;54434;50.096;20.082;2022-10-17T13:57:52;9.00;;;5.50;;
67640;SDS011;54434;50.096;20.082;2022-10-17T14:00:27;8.20;;;4.90;;
67640;SDS011;54434;50.096;20.082;2022-10-17T14:03:04;10.50;;;5.60;;
67640;SDS011;54434;50.096;20.082;2022-10-17T14:06:07;7.00;;;4.50;;
67640;SDS011;54434;50.096;20.082;2022-10-17T14:08:56;11.30;;;5.70;;
67640;SDS011;54434;50.096;20.082;2022-10-17T14:11:38;8.00;;;4.60;;
67640;SDS011;54434;50.096;20.082;2022-10-17T14:14:23;12.40;;;5.70;;
67640;SDS011;54434;50.096;20.082;2022-10-17T14:17:00;9.70;;;4.90;;
67640;SDS011;54434;50.096;20.082;2022-10-17T14:19:38;9.60;;;4.50;;
67640;SDS011;54434;50.096;20.082;2022-10-17T14:22:23;13.40;;;5.80;;
67640;SDS011;54434;50.096;20.082;2022-10-17T14:25:01;9.20;;;4.90;;
67640;SDS011;54434;50.096;20.082;2022-10-17T14:27:53;11.50;;;6.00;;
67640;SDS011;54434;50.096;20.082;2022-10-17T14:30:39;15.50;;;5.40;;
67640;SDS011;54434;50.096;20.082;2022-10-17T14:33:30;11.70;;;6.40;;
67640;SDS011;54434;50.096;20.082;2022-10-17T14:36:09;12.90;;;5.70;;
67640;SDS011;54434;50.096;20.082;2022-10-17T14:38:50;11.30;;;6.70;;
67640;SDS011;54434;50.096;20.082;2022-10-17T14:41:29;10.20;;;5.40;;
67640;SDS011;54434;50.096;20.082;2022-10-17T14:44:23;8.20;;;4.70;;
67640;SDS011;54434;50.096;20.082;2022-10-17T14:47:04;9.50;;;4.20;;
67640;SDS011;54434;50.096;20.082;2022-10-17T14:50:23;11.80;;;5.30;;
67640;SDS011;54434;50.096;20.082;2022-10-17T14:53:16;12.90;;;6.80;;
67640;SDS011;54434;50.096;20.082;2022-10-17T14:55:59;15.80;;;7.50;;
67640;SDS011;54434;50.096;20.082;2022-10-17T14:58:37;18.50;;;8.10;;
67640;SDS011;54434;50.096;20.082;2022-10-17T15:01:14;14.30;;;7.40;;
67640;SDS011;54434;50.096;20.082;2022-10-17T15:03:50;14.40;;;7.70;;
67640;SDS011;54434;50.096;20.082;2022-10-17T15:06:28;17.00;;;9.10;;
67640;SDS011;54434;50.096;20.082;2022-10-17T15:09:06;16.80;;;8.80;;
67640;SDS011;54434;50.096;20.082;2022-10-17T15:11:42;21.60;;;9.00;;
67640;SDS011;54434;50.096;20.082;2022-10-17T15:14:18;15.90;;;8.60;;
67640;SDS011;54434;50.096;20.082;2022-10-17T15:16:54;20.30;;;10.10;;
67640;SDS011;54434;50.096;20.082;2022-10-17T15:19:29;23.60;;;10.80;;
67640;SDS011;54434;50.096;20.082;2022-10-17T15:22:05;20.30;;;9.90;;
67640;SDS011;54434;50.096;20.082;2022-10-17T15:24:41;17.60;;;9.50;;
67640;SDS011;54434;50.096;20.082;2022-10-17T15:27:21;22.80;;;9.80;;
67640;SDS011;54434;50.096;20.082;2022-10-17T15:29:58;26.60;;;10.80;;
67640;SDS011;54434;50.096;20.082;2022-10-17T15:32:34;17.10;;;10.10;;
67640;SDS011;54434;50.096;20.082;2022-10-17T15:35:10;24.10;;;11.70;;
67640;SDS011;54434;50.096;20.082;2022-10-17T15:37:47;18.60;;;10.40;;
67640;SDS011;54434;50.096;20.082;2022-10-17T15:40:26;32.60;;;13.40;;
67640;SDS011;54434;50.096;20.082;2022-10-17T15:43:02;18.60;;;10.00;;
67640;SDS011;54434;50.096;20.082;2022-10-17T15:45:38;19.00;;;9.40;;
67640;SDS011;54434;50.096;20.082;2022-10-17T15:48:22;18.80;;;9.30;;
67640;SDS011;54434;50.096;20.082;2022-10-17T15:51:02;18.30;;;9.90;;
67640;SDS011;54434;50.096;20.082;2022-10-17T15:53:38;19.50;;;9.10;;
67640;SDS011;54434;50.096;20.082;2022-10-17T15:56:21;16.40;;;8.80;;
67640;SDS011;54434;50.096;20.082;2022-10-17T15:58:59;20.50;;;9.80;;
67640;SDS011;54434;50.096;20.082;2022-10-17T16:01:38;23.40;;;9.40;;